createdAt,value
2023-04-13T00:00:13.282Z,94856.06
2023-04-13T00:02:40.085Z,94864.81
2023-04-13T00:05:09.276Z,94869.50
2023-04-13T00:07:39.940Z,94868.31
2023-04-13T00:10:08.675Z,94846.31
2023-04-13T00:12:41.001Z,94891.63
2023-04-13T00:15:07.973Z,94891.38
2023-04-13T00:17:34.490Z,94895.81
2023-04-13T00:20:01.633Z,94897.81
2023-04-13T00:22:28.074Z,94908.28
2023-04-13T00:24:55.538Z,94902.69
2023-04-13T00:27:23.015Z,94902.97
2023-04-13T00:29:49.533Z,94904.53
2023-04-13T00:32:16.114Z,94903.09
2023-04-13T00:34:42.594Z,94906.44
2023-04-13T00:37:09.189Z,94922.38
2023-04-13T00:39:36.161Z,94905.94
2023-04-13T00:42:03.538Z,94915.59
2023-04-13T00:44:30.722Z,94884.56
2023-04-13T00:46:57.292Z,94917.66
2023-04-13T00:49:23.874Z,94921.78
2023-04-13T00:51:50.929Z,94919.75
2023-04-13T00:54:19.031Z,94917.28
2023-04-13T00:56:45.935Z,94912.59
2023-04-13T00:59:13.127Z,94919.81
2023-04-13T01:01:46.173Z,94922.03
2023-04-13T01:04:13.932Z,94911.34
2023-04-13T01:06:45.091Z,94908.56
2023-04-13T01:09:16.471Z,94921.81
2023-04-13T01:11:59.684Z,94912.66
2023-04-13T01:14:37.399Z,94905.59
2023-04-13T01:17:21.634Z,94919.06
2023-04-13T01:20:01.568Z,94916.72
2023-04-13T01:22:33.961Z,94916.94
2023-04-13T01:25:26.039Z,94904.22
2023-04-13T01:28:07.589Z,94905.84
2023-04-13T01:30:37.612Z,94900.09
2023-04-13T01:33:06.542Z,94911.34
2023-04-13T01:35:35.913Z,94913.47
2023-04-13T01:38:03.387Z,94911.34
2023-04-13T01:40:31.455Z,94917.03
2023-04-13T01:42:58.124Z,94914.31
2023-04-13T01:45:36.955Z,94897.53
2023-04-13T01:48:11.746Z,94909.97
2023-04-13T01:50:56.651Z,94908.47
2023-04-13T01:53:44.165Z,94923.91
2023-04-13T01:56:15.731Z,94920.84
2023-04-13T01:58:43.848Z,94920.75
2023-04-13T02:01:14.449Z,94913.75
2023-04-13T02:03:43.240Z,94918.28
2023-04-13T02:06:10.548Z,94916.38
2023-04-13T02:08:40.660Z,94929.47
2023-04-13T02:11:07.774Z,94935.78
2023-04-13T02:13:34.724Z,94922.00
2023-04-13T02:16:02.690Z,94937.56
2023-04-13T02:18:29.154Z,94943.41
2023-04-13T02:21:09.771Z,94933.06
2023-04-13T02:23:37.499Z,94935.72
2023-04-13T02:26:06.872Z,94945.38
2023-04-13T02:28:33.380Z,94953.84
2023-04-13T02:31:00.243Z,94957.50
2023-04-13T02:33:32.745Z,94941.59
2023-04-13T02:36:02.508Z,94953.59
2023-04-13T02:38:32.024Z,94965.16
2023-04-13T02:41:06.470Z,94975.81
2023-04-13T02:43:33.301Z,94961.50
2023-04-13T02:46:00.371Z,94982.66
2023-04-13T02:48:33.032Z,94973.00
2023-04-13T02:51:02.359Z,94976.13
2023-04-13T02:53:31.821Z,94980.13
2023-04-13T02:56:02.999Z,94976.44
2023-04-13T02:58:31.634Z,94952.75
2023-04-13T03:01:01.701Z,94969.22
2023-04-13T03:03:30.477Z,94981.19
2023-04-13T03:05:57.547Z,94963.84
2023-04-13T03:08:36.763Z,94979.81
2023-04-13T03:11:11.956Z,94958.25
2023-04-13T03:13:44.600Z,94964.22
2023-04-13T03:16:11.316Z,94973.16
2023-04-13T03:18:38.290Z,94955.31
2023-04-13T03:21:07.167Z,94953.69
2023-04-13T03:23:44.177Z,94947.44
2023-04-13T03:26:12.391Z,94948.03
2023-04-13T03:28:39.356Z,94909.88
2023-04-13T03:31:06.070Z,94930.19
2023-04-13T03:33:37.115Z,94933.94
2023-04-13T03:36:05.260Z,94926.09
2023-04-13T03:38:36.027Z,94930.09
2023-04-13T03:41:02.525Z,94928.38
2023-04-13T03:43:30.629Z,94924.63
2023-04-13T03:46:08.933Z,94966.16
2023-04-13T03:48:36.887Z,94954.41
2023-04-13T03:51:06.510Z,94949.94
2023-04-13T03:53:45.877Z,94968.03
2023-04-13T03:56:12.356Z,94961.00
2023-04-13T03:58:39.617Z,94962.06
2023-04-13T04:01:06.651Z,94955.00
2023-04-13T04:03:41.705Z,94949.22
2023-04-13T04:06:09.631Z,94951.53
2023-04-13T04:08:38.457Z,94947.66
2023-04-13T04:11:09.731Z,94955.75
2023-04-13T04:13:36.342Z,94947.97
2023-04-13T04:16:08.923Z,94945.66
2023-04-13T04:18:39.412Z,94949.75
2023-04-13T04:21:08.346Z,94947.97
2023-04-13T04:23:37.814Z,94934.22
2023-04-13T04:26:06.608Z,94966.81
2023-04-13T04:28:45.797Z,94962.84
2023-04-13T04:31:18.154Z,94966.84
2023-04-13T04:33:47.486Z,94962.44
2023-04-13T04:36:16.627Z,94949.94
2023-04-13T04:38:58.129Z,94965.56
2023-04-13T04:41:26.174Z,94969.53
2023-04-13T04:44:02.573Z,94957.59
2023-04-13T04:46:38.468Z,94955.03
2023-04-13T04:49:08.715Z,94948.78
2023-04-13T04:51:36.974Z,94958.09
2023-04-13T04:54:03.910Z,94950.00
2023-04-13T04:56:30.764Z,94962.03
2023-04-13T04:58:57.540Z,94966.75
2023-04-13T05:01:34.962Z,94962.88
2023-04-13T05:04:08.120Z,94981.91
2023-04-13T05:06:41.481Z,94940.22
2023-04-13T05:09:11.621Z,94964.97
2023-04-13T05:11:43.506Z,94975.72
2023-04-13T05:14:14.200Z,94969.66
2023-04-13T05:16:40.920Z,94928.22
2023-04-13T05:19:20.764Z,94965.19
2023-04-13T05:21:49.868Z,94956.38
2023-04-13T05:24:16.927Z,94969.44
2023-04-13T05:26:43.583Z,94969.91
2023-04-13T05:29:12.982Z,94986.06
2023-04-13T05:31:46.854Z,94977.75
2023-04-13T05:34:14.662Z,94964.50
2023-04-13T05:37:01.867Z,94932.97
2023-04-13T05:39:29.219Z,94986.13
2023-04-13T05:41:56.471Z,94989.25
2023-04-13T05:44:25.869Z,94979.81
2023-04-13T05:46:53.432Z,95001.53
2023-04-13T05:49:20.513Z,94996.59
2023-04-13T05:51:48.561Z,94928.31
2023-04-13T05:54:17.671Z,94996.28
2023-04-13T05:56:48.557Z,94944.13
2023-04-13T05:59:21.943Z,95004.09
2023-04-13T06:01:52.296Z,95024.78
2023-04-13T06:04:20.994Z,95025.31
2023-04-13T06:06:52.787Z,95022.16
2023-04-13T06:09:20.252Z,95006.47
2023-04-13T06:11:47.595Z,95032.63
2023-04-13T06:14:15.575Z,94997.94
2023-04-13T06:16:46.599Z,95031.81
2023-04-13T06:19:16.720Z,95038.03
2023-04-13T06:21:53.293Z,95053.25
2023-04-13T06:24:22.001Z,95031.59
2023-04-13T06:26:49.303Z,95052.50
2023-04-13T06:29:24.575Z,95029.75
2023-04-13T06:32:04.665Z,95034.38
2023-04-13T06:34:31.800Z,95052.66
2023-04-13T06:37:01.187Z,95042.69
2023-04-13T06:39:41.437Z,95038.97
2023-04-13T06:42:10.102Z,95043.66
2023-04-13T06:44:54.274Z,95042.84
2023-04-13T06:47:22.910Z,95038.16
2023-04-13T06:49:50.256Z,95046.41
2023-04-13T06:52:17.467Z,95060.22
2023-04-13T06:54:46.973Z,95053.59
2023-04-13T06:57:26.565Z,95048.69
2023-04-13T06:59:53.667Z,95039.00
2023-04-13T07:02:22.109Z,95050.03
2023-04-13T07:04:49.841Z,95052.28
2023-04-13T07:07:17.196Z,95052.22
2023-04-13T07:09:45.122Z,95050.84
2023-04-13T07:12:12.688Z,95030.22
2023-04-13T07:14:41.181Z,95053.31
2023-04-13T07:17:13.164Z,95048.06
2023-04-13T07:19:46.214Z,95058.16
2023-04-13T07:22:14.419Z,95058.50
2023-04-13T07:24:49.426Z,95045.78
2023-04-13T07:27:19.644Z,95045.81
2023-04-13T07:29:51.099Z,95047.53
2023-04-13T07:32:24.469Z,95042.84
2023-04-13T07:35:01.454Z,95047.19
2023-04-13T07:37:33.670Z,95043.00
2023-04-13T07:40:01.167Z,95039.69
2023-04-13T07:42:34.502Z,95062.06
2023-04-13T07:45:02.143Z,95047.31
2023-04-13T07:47:33.681Z,95048.53
2023-04-13T07:50:07.634Z,95039.16
2023-04-13T07:52:35.814Z,95037.91
2023-04-13T07:55:03.899Z,95057.34
2023-04-13T07:57:34.939Z,95046.66
2023-04-13T08:00:06.385Z,95039.59
2023-04-13T08:02:41.462Z,95028.81
2023-04-13T08:05:13.212Z,95031.50
2023-04-13T08:07:42.546Z,95020.34
2023-04-13T08:10:09.927Z,95035.28
2023-04-13T08:12:37.078Z,95033.34
2023-04-13T08:15:05.971Z,95034.19
2023-04-13T08:17:34.144Z,94960.19
2023-04-13T08:20:01.490Z,94997.66
2023-04-13T08:22:31.413Z,95040.91
2023-04-13T08:24:59.377Z,95034.19
2023-04-13T08:27:28.458Z,95047.03
2023-04-13T08:30:04.044Z,95026.44
2023-04-13T08:32:42.339Z,95034.91
2023-04-13T08:35:10.709Z,95039.09
2023-04-13T08:37:39.906Z,95050.59
2023-04-13T08:40:19.654Z,95046.69
2023-04-13T08:42:49.056Z,95036.25
2023-04-13T08:45:19.402Z,95027.88
2023-04-13T08:47:49.934Z,94996.59
2023-04-13T08:50:22.474Z,95020.94
2023-04-13T08:52:57.503Z,95028.59
2023-04-13T08:55:26.698Z,95015.84
2023-04-13T08:57:58.564Z,95001.84
2023-04-13T09:00:27.347Z,95019.72
2023-04-13T09:03:06.054Z,95037.09
2023-04-13T09:05:42.349Z,95002.75
2023-04-13T09:08:13.907Z,95008.50
2023-04-13T09:10:44.427Z,95004.97
2023-04-13T09:13:12.392Z,95014.56
2023-04-13T09:15:40.770Z,95000.50
2023-04-13T09:18:28.012Z,95022.31
2023-04-13T09:21:02.413Z,95030.84
2023-04-13T09:23:29.759Z,95029.16
2023-04-13T09:26:08.113Z,95016.56
2023-04-13T09:28:48.639Z,95019.41
2023-04-13T09:31:16.974Z,94989.09
2023-04-13T09:33:50.572Z,95005.28
2023-04-13T09:36:21.176Z,95020.59
2023-04-13T09:38:58.447Z,94977.69
2023-04-13T09:41:40.952Z,94995.16
2023-04-13T09:44:19.141Z,94996.25
2023-04-13T09:47:06.501Z,94996.44
2023-04-13T09:50:01.691Z,95007.72
2023-04-13T09:52:46.637Z,94987.78
2023-04-13T09:55:19.431Z,94990.19
2023-04-13T09:57:46.899Z,94988.22
2023-04-13T10:00:23.256Z,94986.09
2023-04-13T10:02:52.234Z,94957.75
2023-04-13T10:05:20.261Z,94929.41
2023-04-13T10:07:48.987Z,94994.69
2023-04-13T10:10:19.736Z,94972.06
2023-04-13T10:12:56.425Z,94987.56
2023-04-13T10:16:05.181Z,94985.91
2023-04-13T10:19:00.770Z,94980.16
2023-04-13T10:21:39.686Z,94958.59
2023-04-13T10:24:11.680Z,94979.53
2023-04-13T10:26:41.190Z,94954.28
2023-04-13T10:29:10.360Z,94950.78
2023-04-13T10:31:39.926Z,94973.44
2023-04-13T10:34:13.980Z,94956.84
2023-04-13T10:36:43.423Z,94977.09
2023-04-13T10:39:11.871Z,94961.50
2023-04-13T10:41:40.025Z,94955.09
2023-04-13T10:44:08.518Z,94959.97
2023-04-13T10:46:36.565Z,94891.91
2023-04-13T10:49:07.606Z,94938.34
2023-04-13T10:51:47.450Z,94936.19
2023-04-13T10:54:14.937Z,94953.25
2023-04-13T10:56:41.650Z,94948.00
2023-04-13T10:59:08.169Z,94962.13
2023-04-13T11:01:35.745Z,94946.56
2023-04-13T11:04:09.826Z,94955.69
2023-04-13T11:06:40.552Z,94950.94
2023-04-13T11:09:07.944Z,94968.97
2023-04-13T11:11:36.895Z,94958.81
2023-04-13T11:14:03.848Z,94971.69
2023-04-13T11:16:30.789Z,94974.41
2023-04-13T11:19:04.373Z,94986.31
2023-04-13T11:21:35.304Z,94971.31
2023-04-13T11:24:01.991Z,94967.41
2023-04-13T11:26:36.235Z,94984.84
2023-04-13T11:29:04.461Z,94975.19
2023-04-13T11:31:42.305Z,94961.94
2023-04-13T11:34:09.844Z,94961.47
2023-04-13T11:36:38.891Z,94973.94
2023-04-13T11:39:10.771Z,94975.50
2023-04-13T11:41:43.763Z,94956.09
2023-04-13T11:44:13.354Z,94971.09
2023-04-13T11:46:40.062Z,94974.22
2023-04-13T11:49:07.275Z,94965.94
2023-04-13T11:51:35.184Z,94959.31
2023-04-13T11:54:01.914Z,94952.59
2023-04-13T11:56:28.756Z,94948.69
2023-04-13T11:58:55.334Z,94952.78
2023-04-13T12:01:26.637Z,94957.44
2023-04-13T12:04:14.723Z,94956.00
2023-04-13T12:06:45.869Z,94950.06
2023-04-13T12:09:16.775Z,94957.56
2023-04-13T12:11:50.143Z,94951.63
2023-04-13T12:14:49.314Z,94956.47
2023-04-13T12:19:46.263Z,94955.81
2023-04-13T12:22:14.641Z,94957.84
2023-04-13T12:24:42.737Z,94951.09
2023-04-13T12:27:18.513Z,94962.03
2023-04-13T12:29:45.967Z,94974.34
2023-04-13T12:32:14.862Z,94965.47
2023-04-13T12:34:42.975Z,94969.94
2023-04-13T12:37:11.260Z,94977.53
2023-04-13T12:39:37.978Z,94988.81
2023-04-13T12:42:05.115Z,94975.31
2023-04-13T12:44:33.747Z,94979.22
2023-04-13T12:47:01.115Z,94975.31
2023-04-13T12:49:27.658Z,94978.94
2023-04-13T12:51:54.165Z,94986.31
2023-04-13T12:54:20.692Z,94983.09
2023-04-13T12:56:47.488Z,94992.31
2023-04-13T12:59:13.958Z,94995.38
2023-04-13T13:01:40.712Z,94981.75
2023-04-13T13:04:07.382Z,94993.81
2023-04-13T13:06:34.234Z,94994.41
2023-04-13T13:09:01.239Z,94980.47
2023-04-13T13:11:28.297Z,94979.50
2023-04-13T13:13:55.087Z,94984.06
2023-04-13T13:16:22.061Z,94989.31
2023-04-13T13:18:51.326Z,94987.94
2023-04-13T13:21:19.404Z,94988.44
2023-04-13T13:23:46.269Z,94996.16
2023-04-13T13:26:23.719Z,94994.56
2023-04-13T13:28:52.109Z,94991.00
2023-04-13T13:31:19.032Z,94982.84
2023-04-13T13:33:45.637Z,94984.19
2023-04-13T13:36:13.916Z,94970.47
2023-04-13T13:38:41.212Z,94971.88
2023-04-13T13:41:07.729Z,94972.84
2023-04-13T13:43:34.298Z,94985.50
2023-04-13T13:46:00.792Z,94981.13
2023-04-13T13:48:27.767Z,94972.56
2023-04-13T13:51:04.442Z,94983.09
2023-04-13T13:53:32.932Z,94967.16
2023-04-13T13:55:59.436Z,94984.09
2023-04-13T13:58:25.892Z,94964.44
2023-04-13T14:00:52.397Z,94965.81
2023-04-13T14:03:19.096Z,94966.22
2023-04-13T14:05:45.922Z,94965.81
2023-04-13T14:08:12.396Z,94962.69
2023-04-13T14:10:39.205Z,94963.88
2023-04-13T14:13:06.052Z,94969.94
2023-04-13T14:15:33.148Z,94966.91
2023-04-13T14:18:09.697Z,94951.22
2023-04-13T14:20:40.813Z,94953.09
2023-04-13T14:23:08.932Z,94951.22
2023-04-13T14:25:36.593Z,94949.69
2023-04-13T14:28:03.236Z,94975.78
2023-04-13T14:30:30.206Z,94970.59
2023-04-13T14:32:58.659Z,94974.41
2023-04-13T14:35:25.386Z,94969.44
2023-04-13T14:37:54.811Z,94986.78
2023-04-13T14:40:23.229Z,94998.97
2023-04-13T14:42:53.195Z,94997.09
2023-04-13T14:45:21.026Z,95005.56
2023-04-13T14:47:47.626Z,94989.19
2023-04-13T14:50:15.428Z,94972.63
2023-04-13T14:52:46.294Z,94981.84
2023-04-13T14:55:13.775Z,94970.25
2023-04-13T14:57:41.489Z,94967.31
2023-04-13T15:00:15.768Z,94969.59
2023-04-13T15:02:42.789Z,94954.34
2023-04-13T15:05:09.643Z,94942.53
2023-04-13T15:07:36.168Z,94938.75
2023-04-13T15:10:04.411Z,94936.81
2023-04-13T15:12:30.986Z,94939.22
2023-04-13T15:14:57.474Z,94953.06
2023-04-13T15:17:24.024Z,94980.09
2023-04-13T15:19:50.618Z,94981.72
2023-04-13T15:22:17.112Z,94970.66
2023-04-13T15:24:43.761Z,94963.06
2023-04-13T15:27:10.327Z,94970.69
2023-04-13T15:29:36.817Z,94987.84
2023-04-13T15:32:03.397Z,94979.78
2023-04-13T15:34:30.612Z,94982.63
2023-04-13T15:36:59.198Z,94995.47
2023-04-13T15:39:25.871Z,94990.28
2023-04-13T15:41:54.149Z,94997.47
2023-04-13T15:44:20.605Z,94989.31
2023-04-13T15:46:48.040Z,94995.69
2023-04-13T15:49:14.666Z,94991.16
2023-04-13T15:51:41.317Z,94995.56
2023-04-13T15:54:07.816Z,94991.53
2023-04-13T15:56:34.260Z,94981.47
2023-04-13T15:59:00.976Z,94990.53
2023-04-13T16:01:27.678Z,94992.31
2023-04-13T16:03:54.868Z,94987.84
2023-04-13T16:06:21.480Z,94969.75
2023-04-13T16:08:49.151Z,94997.00
2023-04-13T16:11:15.766Z,94980.13
2023-04-13T16:13:49.314Z,95006.50
2023-04-13T16:16:16.824Z,94987.66
2023-04-13T16:18:43.377Z,94992.41
2023-04-13T16:21:11.054Z,94989.84
2023-04-13T16:23:38.152Z,95005.53
2023-04-13T16:26:05.062Z,94995.56
2023-04-13T16:28:31.573Z,95010.34
2023-04-13T16:30:58.185Z,94995.44
2023-04-13T16:33:24.764Z,95014.53
2023-04-13T16:35:51.440Z,94995.03
2023-04-13T16:38:17.960Z,94999.75
2023-04-13T16:40:44.433Z,95011.50
2023-04-13T16:43:10.994Z,95022.84
2023-04-13T16:45:37.710Z,95015.31
2023-04-13T16:48:05.108Z,95022.13
2023-04-13T16:50:32.451Z,95032.97
2023-04-13T16:52:59.532Z,95045.41
2023-04-13T16:55:28.251Z,95029.63
2023-04-13T16:57:55.293Z,95023.53
2023-04-13T17:00:22.134Z,95036.34
2023-04-13T17:02:48.917Z,95040.41
2023-04-13T17:05:16.014Z,95033.09
2023-04-13T17:07:43.970Z,95042.53
2023-04-13T17:10:12.833Z,95035.81
2023-04-13T17:12:39.710Z,95024.41
2023-04-13T17:15:06.796Z,95039.50
2023-04-13T17:17:34.866Z,95044.22
2023-04-13T17:20:01.684Z,95046.31
2023-04-13T17:22:28.256Z,95051.38
2023-04-13T17:24:55.364Z,95020.25
2023-04-13T17:27:21.883Z,95014.03
2023-04-13T17:29:49.664Z,95020.53
2023-04-13T17:32:16.489Z,95019.28
2023-04-13T17:34:44.534Z,95014.03
2023-04-13T17:37:11.741Z,95024.00
2023-04-13T17:39:42.072Z,95021.94
2023-04-13T17:42:09.405Z,95015.41
2023-04-13T17:44:35.993Z,95014.69
2023-04-13T17:47:02.485Z,95017.09
2023-04-13T17:49:29.121Z,95035.78
2023-04-13T17:51:55.775Z,95015.13
2023-04-13T17:54:22.193Z,95037.06
2023-04-13T17:56:48.646Z,94962.47
2023-04-13T17:59:15.779Z,95025.72
2023-04-13T18:01:45.379Z,95037.28
2023-04-13T18:04:13.475Z,95034.16
2023-04-13T18:06:40.936Z,95056.88
2023-04-13T18:09:08.854Z,95057.00
2023-04-13T18:11:38.143Z,95022.91
2023-04-13T18:14:04.887Z,95055.75
2023-04-13T18:16:32.129Z,95051.03
2023-04-13T18:18:58.835Z,95046.41
2023-04-13T18:21:25.931Z,95034.41
2023-04-13T18:23:55.445Z,95052.91
2023-04-13T18:26:22.676Z,95056.59
2023-04-13T18:28:49.242Z,95041.22
2023-04-13T18:31:15.836Z,95031.50
2023-04-13T18:33:42.333Z,95038.69
2023-04-13T18:36:08.824Z,95065.22
2023-04-13T18:38:35.852Z,95045.09
2023-04-13T18:41:02.351Z,95067.97
2023-04-13T18:43:28.770Z,95068.72
2023-04-13T18:45:55.201Z,95065.69
2023-04-13T18:48:22.690Z,95054.53
2023-04-13T18:50:49.096Z,94999.09
2023-04-13T18:53:15.944Z,95050.84
2023-04-13T18:55:48.637Z,95058.59
2023-04-13T18:58:15.252Z,95058.81
2023-04-13T19:00:41.701Z,95058.63
2023-04-13T19:03:08.430Z,95060.09
2023-04-13T19:05:35.600Z,95066.59
2023-04-13T19:08:04.036Z,95049.50
2023-04-13T19:10:31.502Z,95061.19
2023-04-13T19:12:58.102Z,95067.75
2023-04-13T19:15:25.641Z,95034.44
2023-04-13T19:17:52.696Z,95064.13
2023-04-13T19:20:22.856Z,95059.00
2023-04-13T19:22:49.404Z,95072.31
2023-04-13T19:25:16.070Z,95075.19
2023-04-13T19:27:46.538Z,95090.06
2023-04-13T19:30:14.794Z,95107.03
2023-04-13T19:32:44.842Z,95107.06
2023-04-13T19:35:12.520Z,95092.75
2023-04-13T19:37:39.855Z,95103.13
2023-04-13T19:40:09.965Z,95098.19
2023-04-13T19:42:36.876Z,95102.31
2023-04-13T19:45:03.932Z,95097.63
2023-04-13T19:47:30.414Z,95090.22
2023-04-13T19:49:57.230Z,95096.78
2023-04-13T19:52:25.001Z,95093.19
2023-04-13T19:54:51.634Z,95102.13
2023-04-13T19:57:21.372Z,95080.47
2023-04-13T19:59:48.187Z,95075.50
2023-04-13T20:02:14.817Z,95078.34
2023-04-13T20:04:41.411Z,95088.72
2023-04-13T20:07:07.948Z,95080.94
2023-04-13T20:09:34.449Z,95091.59
2023-04-13T20:12:01.471Z,95090.06
2023-04-13T20:14:27.931Z,95101.63
2023-04-13T20:16:54.446Z,95079.41
2023-04-13T20:19:22.847Z,95021.78
2023-04-13T20:21:51.144Z,95083.53
2023-04-13T20:24:18.591Z,95082.06
2023-04-13T20:26:45.526Z,95065.09
2023-04-13T20:29:12.324Z,95076.09
2023-04-13T20:31:38.897Z,95046.34
2023-04-13T20:34:07.476Z,95072.19
2023-04-13T20:36:34.026Z,95048.75
2023-04-13T20:39:00.537Z,95078.59
2023-04-13T20:41:31.998Z,95080.91
2023-04-13T20:43:59.352Z,95092.66
2023-04-13T20:46:34.620Z,95064.31
2023-04-13T20:49:02.669Z,95101.91
2023-04-13T20:51:30.974Z,95099.28
2023-04-13T20:53:58.361Z,95040.53
2023-04-13T20:56:25.484Z,95100.59
2023-04-13T20:58:57.175Z,95079.22
2023-04-13T21:01:26.974Z,95106.38
2023-04-13T21:03:53.710Z,95085.19
2023-04-13T21:06:22.776Z,95094.66
2023-04-13T21:08:49.508Z,95092.28
2023-04-13T21:11:18.746Z,95091.22
2023-04-13T21:13:45.280Z,95094.38
2023-04-13T21:16:12.012Z,95094.03
2023-04-13T21:18:38.933Z,95071.41
2023-04-13T21:21:06.581Z,95093.03
2023-04-13T21:23:33.482Z,95061.97
2023-04-13T21:25:59.925Z,95072.63
2023-04-13T21:28:26.406Z,95086.50
2023-04-13T21:30:52.865Z,95070.84
2023-04-13T21:33:19.426Z,95067.69
2023-04-13T21:35:45.938Z,94992.03
2023-04-13T21:38:12.537Z,95075.25
2023-04-13T21:40:39.040Z,95045.50
2023-04-13T21:43:05.665Z,95055.69
2023-04-13T21:45:33.083Z,95017.09
2023-04-13T21:47:59.596Z,95056.75
2023-04-13T21:50:26.169Z,94988.19
2023-04-13T21:52:52.644Z,95028.06
2023-04-13T21:55:19.141Z,94993.09
2023-04-13T21:57:49.525Z,95055.19
2023-04-13T22:00:19.600Z,95061.97
2023-04-13T22:02:46.624Z,95045.31
2023-04-13T22:05:13.397Z,95003.28
2023-04-13T22:07:43.335Z,95045.81
2023-04-13T22:10:11.102Z,95044.97
2023-04-13T22:12:37.882Z,95020.75
2023-04-13T22:15:04.807Z,94995.72
2023-04-13T22:17:31.379Z,95044.72
2023-04-13T22:19:57.928Z,95034.88
2023-04-13T22:22:24.397Z,95023.94
2023-04-13T22:24:52.395Z,94985.06
2023-04-13T22:27:18.933Z,95043.25
2023-04-13T22:29:47.060Z,95028.69
2023-04-13T22:32:14.075Z,94985.09
2023-04-13T22:34:40.541Z,95034.38
2023-04-13T22:37:07.087Z,95038.56
2023-04-13T22:39:33.908Z,95016.38
2023-04-13T22:42:00.588Z,95054.25
2023-04-13T22:44:33.089Z,95052.19
2023-04-13T22:47:02.918Z,95045.34
2023-04-13T22:49:29.938Z,95050.06
2023-04-13T22:51:56.826Z,95034.94
2023-04-13T22:54:23.983Z,95061.56
2023-04-13T22:56:50.445Z,95062.63
2023-04-13T22:59:16.948Z,95062.63
2023-04-13T23:01:43.682Z,95070.22
2023-04-13T23:04:11.132Z,95059.50
2023-04-13T23:06:39.173Z,95060.84
2023-04-13T23:09:05.698Z,95056.41
2023-04-13T23:11:32.223Z,95054.31
2023-04-13T23:14:00.540Z,95065.81
2023-04-13T23:16:28.549Z,95043.63
2023-04-13T23:18:56.425Z,95055.13
2023-04-13T23:21:22.946Z,95037.88
2023-04-13T23:23:49.484Z,95057.47
2023-04-13T23:26:16.100Z,95053.28
2023-04-13T23:28:42.718Z,95058.47
2023-04-13T23:31:09.340Z,95054.56
2023-04-13T23:33:36.005Z,95059.56
2023-04-13T23:36:03.527Z,95050.13
2023-04-13T23:38:31.384Z,95055.38
2023-04-13T23:40:58.125Z,95059.31
2023-04-13T23:43:25.652Z,95063.75
2023-04-13T23:45:53.153Z,95060.09
2023-04-13T23:48:21.209Z,95060.84
2023-04-13T23:50:48.236Z,95054.84
2023-04-13T23:53:15.227Z,95056.69
2023-04-13T23:55:41.753Z,95051.22
2023-04-13T23:58:08.219Z,95046.78
